Hovedside
METAR-TAF:

METAR-TAF

Lufthavner :

Trondheim lufthavn. Værnes

Trondheim, Norge

breddegrad: 63-28N, lengdegrad: 010-56E, høyde over havet: 1 m

Gjeldene værobservasjon

Denne rapporten ble laget for 17 minutter siden, klokken 17:20 UTC
Vind 13 kt fra Vest
Temperatur 16°C
Luftfuktighet 59%
Trykk 1033 hPa
Sikt 10 km eller mer
Få skyer i en høyde av 5000 ft

METAR: ENVA 261720Z 27013KT 9999 FEW050 16/08 Q1033 RMK WIND 670FT 29015KT

Tid: 19:37 (17:37 UTC)

Varsel

Varsel gyldig fra 26. klokken 16 UTC til 27. klokken 12 UTC
Vind 12 kt fra Vest
Sikt 10 km eller mer
ingen skyer under 1500 m og ingen bygeskyer
Blir
fra 26. klokken 19 UTC til 26. klokken 21 UTC
Vind 5 kt fra skiftende retning

TAF: ENVA 2616/2712 28012KT CAVOK BECMG 2619/2621 VRB05KT

Værobservasjoner og værvarsel for over 4000 flyplasser (METAR- og TAF-rapporter).

Tilgjengelige stasjoner er representert av de røde og gule prikkene på kartet.

Hold musepekeren over prikken for å se navnet på stasjonen.

Klikk så for å se værobservasjoner og -varsler.

For å forandre kartet kan du klikke på den grønne knappen med svart kryss for å zoome inn, på den grønne knappen med strek for å zoome ut, eller på de grønne pilene for å se tilstøtende kart.


METAR-TAF: